Port Everglades, Florida
Current Conditions -  °F | °C
As of 8:53 PM on Saturday 22 Nov 2014 (Local Time) from KFLL Reporting Station
Overcast Overcast  
Wind Chill: 78°   Ceiling: 3200
Heat Index: 80°   Visibility: 9mi
Dew Point: 70°   Wind: 26mph
Humidity: 76%   Direction: 110°ESE
Pressure: 30.08"   Gusts: 32mph
Location:  26.0999°N, 80.132°W
Report Text: KFLL 230153Z 11023G28KT 9SM SCT023 BKN032 OVC041 26/21 A3008 RMK AO2 PK WND 10029/0117 RAE0054B22E31 SLP185 P0000 T02560211
Loading
Personal Weather Stations






























Interactive Weather Map New forecast layout! Learn more

10-Day Weather Forecast

Advertisements
Track Severe Weather on mobile